Metar Cercanos

 

LEPA - Palma De Mallorc, Spain
Distance from station: ONO 38km
Actualización: Tue, 03-Aug-2021 9:30am CEST
Few Clouds
Few Clouds
 Viento del ENE
Viento: ENE 17 km/h
Temperatura: 26°C
Rocío: 17°C
Humedad: 58%
Barómetro: 1016 hPa
Clouds: Few Clouds
Visibility: 10 km
Cloud details: Few Clouds 762 m
2021/08/03 07:30 LEPA 030730Z 06009KT 030V090 9999 FEW025 26/17 Q1016 NOSIG
LEMH - Mahon/Menorca Is, Spain
Distance from station: ENE 105km
Actualización: Tue, 03-Aug-2021 9:30am CEST
Despejado
Despejado
 Viento del NE
Viento: NE 24 km/h
Temperatura: 25°C
Rocío: 17°C
Humedad: 61%
Barómetro: 1016 hPa
Resumen: Despejado
Visibility: greater than 10 km
2021/08/03 07:30 LEMH 030730Z 04013KT CAVOK 25/17 Q1016
 
LEIB - Ibiza/Es Codola, Spain
Distance from station: OSO 165km
Actualización: Tue, 03-Aug-2021 9:30am CEST
Despejado
Despejado
 Viento del NE
Viento: NE 17 km/h
Temperatura: 27°C
Indice Calor: 28°C
Rocío: 18°C
Humedad: 58%
Barómetro: 1016 hPa
Resumen: Despejado
Visibility: greater than 10 km
2021/08/03 07:30 LEIB 030730Z 05009KT CAVOK 27/18 Q1016 NOSIG
LEBL - Barcelona Airpor, Spain
Distance from station: NNO 225km
Actualización: Tue, 03-Aug-2021 9:30am CEST
Few Clouds
Few Clouds
 Viento del NO
Viento: NO 13 km/h
Temperatura: 24°C
Rocío: 19°C
Humedad: 74%
Barómetro: 1016 hPa
Clouds: Few Clouds
Visibility: 10 km
Cloud details: Few Clouds 762 m
2021/08/03 07:30 LEBL 030730Z 32007KT 290V360 9999 FEW025 24/19 Q1016 NOSIG
 
LEVC - Valencia (civ/Mi, Spain
Distance from station: NO 188km
Actualización: Tue, 03-Aug-2021 9:30am CEST
Few Clouds
Few Clouds
 Viento del NO
Viento: NO 6 km/h
Temperatura: 24°C
Rocío: 17°C
Humedad: 65%
Barómetro: 1017 hPa
Clouds: Few Clouds
Visibility: 10 km
Cloud details: Few Clouds 610 m
2021/08/03 07:30 LEVC 030730Z 32003KT 270V360 9999 FEW020 24/17 Q1017 NOSIG
LEGE - Gerona/Costa Bra, Spain
Distance from station: N 276km
Actualización: Tue, 03-Aug-2021 9:30am CEST
Despejado
Despejado
 Viento del calm
Viento: Calma
Temperatura: 22°C
Rocío: 17°C
Humedad: 73%
Barómetro: 1017 hPa
Resumen: Despejado
Visibility: greater than 10 km
2021/08/03 07:30 LEGE 030730Z 00000KT CAVOK 22/17 Q1017
 
LEAL - Alicante/El Alte, Spain
Distance from station: OSO 344km
Actualización: Tue, 03-Aug-2021 9:30am CEST
Few Clouds
Few Clouds
 Viento del NNE
Viento: NNE 6 km/h
Temperatura: 26°C
Rocío: 18°C
Humedad: 61%
Barómetro: 1017 hPa
Clouds: Few Clouds
Visibility: 10 km
Cloud details: Few Clouds 640 m
2021/08/03 07:30 LEAL 030730Z 03003KT 340V080 9999 FEW021 26/18 Q1017 NOSIG
LEAM - Almeria Airport, Spain
Distance from station: SSO 56km
Actualización: Tue, 03-Aug-2021 9:30am CEST
Few Clouds
Few Clouds
 Viento del SSE
Viento: SSE 6 km/h
Temperatura: 26°C
Rocío: 20°C
Humedad: 70%
Barómetro: 1016 hPa
Clouds: Few Clouds
Visibility: 10 km
Cloud details: Few Clouds 305 m
2021/08/03 07:30 LEAM 030730Z 16003KT 070V220 9999 FEW010 26/20 Q1016
 
LEZG - Zaragoza (mil/Ci, Spain
Distance from station: NO 431km
Actualización: Tue, 03-Aug-2021 9:30am CEST
Despejado
Despejado
 Viento del ONO
Viento: ONO 13 km/h
Temperatura: 20°C
Rocío: 12°C
Humedad: 60%
Barómetro: 1018 hPa
Resumen: Despejado
Visibility: greater than 10 km
2021/08/03 07:30 LEZG 030730Z 30007KT 260V330 CAVOK 20/12 Q1018
LEMD - Madrid/Barajas, Spain
Distance from station: ONO 234km
Actualización: Tue, 03-Aug-2021 9:30am CEST
Despejado
Despejado
 Viento del N
Viento: N 4 km/h
Temperatura: 20°C
Rocío: 11°C
Humedad: 56%
Barómetro: 1019 hPa
Resumen: Despejado
Visibility: greater than 10 km
2021/08/03 07:30 LEMD 030730Z 36002KT CAVOK 20/11 Q1019 NOSIG
 
LEGR - Granada Airport, Spain
Distance from station: OSO 62km
Actualización: Tue, 03-Aug-2021 9:30am CEST
Despejado
Despejado
 Viento del varies
Viento: varies 2 km/h
Temperatura: 19°C
Rocío: 13°C
Humedad: 68%
Barómetro: 1019 hPa
Resumen: Despejado
Visibility: greater than 10 km
2021/08/03 07:30 LEGR 030730Z VRB01KT CAVOK 19/13 Q1019
LEMG - Malaga (civ/Mil), Spain
Distance from station: OSO 227km
Actualización: Tue, 03-Aug-2021 9:30am CEST
Few Clouds
Few Clouds
 Viento del ONO
Viento: ONO 13 km/h
Temperatura: 24°C
Rocío: 18°C
Humedad: 69%
Barómetro: 1016 hPa
Clouds: Few Clouds
Visibility: 10 km
Cloud details: Few Clouds 914 m
2021/08/03 07:30 LEMG 030730Z 30007KT 280V340 9999 FEW030 24/18 Q1016 NOSIG
 
LEZL - Sevilla (civ/Mil, Spain
Distance from station: S 318km
Actualización: Tue, 03-Aug-2021 9:30am CEST
Despejado
Despejado
 Viento del E
Viento: E 6 km/h
Temperatura: 23°C
Rocío: 16°C
Humedad: 65%
Barómetro: 1016 hPa
Resumen: Despejado
Visibility: greater than 10 km
2021/08/03 07:30 LEZL 030730Z 08003KT 030V120 CAVOK 23/16 Q1016 NOSIG
LEVT - Vitoria, Spain
Distance from station: NO 226km
Actualización: Tue, 03-Aug-2021 9:40am CEST
Patches of fog, Cubierto
Patches of fog, Cubierto
 Viento del varies
Viento: varies 4 km/h
Temperatura: 13°C
Rocío: 13°C
Humedad: 100%
Barómetro: 1019 hPa
Resumen: Patches of Fog
Clouds: Cubierto
Visibility: 3 km
Cloud details: Cubierto 91 m
2021/08/03 07:40 LEVT 030740Z VRB02KT 3000 BCFG OVC003 13/13 Q1019
 
LEBB - Bilbao/Sondica, Spain
Distance from station: NNO 235km
Actualización: Tue, 03-Aug-2021 9:30am CEST
Despejado
Despejado
 Viento del ESE
Viento: ESE 7 km/h
Temperatura: 17°C
Rocío: 15°C
Humedad: 88%
Barómetro: 1018 hPa
Resumen: Despejado
Visibility: greater than 10 km
2021/08/03 07:30 LEBB 030730Z 11004KT 070V170 CAVOK 17/15 Q1018 NOSIG
LESO - San Sebastian/Fu, Spain
Distance from station: N 231km
Actualización: Tue, 03-Aug-2021 9:30am CEST
Few Clouds
Few Clouds
 Viento del varies
Viento: varies 4 km/h
Temperatura: 18°C
Rocío: 15°C
Humedad: 83%
Barómetro: 1017 hPa
Clouds: Few Clouds
Visibility: 10 km
Cloud details: Few Clouds 1463 m
2021/08/03 07:30 LESO 030730Z VRB02KT 9999 FEW048 18/15 Q1017
 
LEVD - Valladolid(Mil/C, Spain
Distance from station: ONO 239km
Actualización: Tue, 03-Aug-2021 9:30am CEST
Despejado
Despejado
 Viento del varies
Viento: varies 4 km/h
Temperatura: 16°C
Rocío: 11°C
Humedad: 72%
Barómetro: 1019 hPa
Resumen: Despejado
Visibility: greater than 10 km
2021/08/03 07:30 LEVD 030730Z VRB02KT CAVOK 16/11 Q1019
LESA - Salamanca (civ/M, Spain
Distance from station: ONO 349km
Actualización: Tue, 03-Aug-2021 9:30am CEST
Despejado
Despejado
 Viento del varies
Viento: varies 2 km/h
Temperatura: 17°C
Rocío: 11°C
Humedad: 68%
Barómetro: 1019 hPa
Resumen: Despejado
Visibility: greater than 10 km
2021/08/03 07:30 LESA 030730Z VRB01KT CAVOK 17/11 Q1019
 
LEXJ - Santander/Paraya, Spain
Distance from station: NNO 247km
Actualización: Tue, 03-Aug-2021 9:30am CEST
Few Clouds
Few Clouds
 Viento del calm
Viento: Calma
Temperatura: 18°C
Rocío: 16°C
Humedad: 88%
Barómetro: 1017 hPa
Clouds: Few Clouds
Visibility: 10 km
Cloud details: Few Clouds 853 m
2021/08/03 07:30 LEXJ 030730Z 00000KT 9999 FEW028 18/16 Q1017
LEAS - Asturias/Aviles, Spain
Distance from station: NO 214km
Actualización: Tue, 03-Aug-2021 9:30am CEST
Parcialmente nuboso
Parcialmente nuboso
 Viento del O
Viento: O 11 km/h
Temperatura: 18°C
Rocío: 14°C
Humedad: 78%
Barómetro: 1018 hPa
Clouds: Parcialmente nuboso
Visibility: 10 km
Cloud details: Parcialmente nuboso 914 m
2021/08/03 07:30 LEAS 030730Z 27006KT 9999 SCT030 18/14 Q1018 NOSIG
 
LECO - La Coruna/Alvedr, Spain
Distance from station: ONO 222km
Actualización: Tue, 03-Aug-2021 9:30am CEST
Parcialmente nuboso
Parcialmente nuboso
 Viento del SSE
Viento: SSE 9 km/h
Temperatura: 13°C
Rocío: 13°C
Humedad: 100%
Barómetro: 1019 hPa
Clouds: Parcialmente nuboso
Visibility: 10 km
Cloud details: Few Clouds 823 m
Parcialmente nuboso 1494 m
2021/08/03 07:30 LECO 030730Z 16005KT 9999 FEW027 SCT049 13/13 Q1019 NOSIG
LEVX - Vigo/Peinador, Spain
Distance from station: O 214km
Actualización: Tue, 03-Aug-2021 9:30am CEST
Despejado
Despejado
 Viento del varies
Viento: varies 4 km/h
Temperatura: 16°C
Rocío: 13°C
Humedad: 83%
Barómetro: 1019 hPa
Resumen: Despejado
Visibility: greater than 10 km
2021/08/03 07:30 LEVX 030730Z VRB02KT CAVOK 16/13 Q1019 NOSIG